sensor_id;sensor_type;location;lat;lon;timestamp;P1;durP1;ratioP1;P2;durP2;ratioP2
4074;SDS011;2052;53.522;9.806;2023-03-01T00:02:07;14.30;;;8.97;;
4074;SDS011;2052;53.522;9.806;2023-03-01T00:04:33;12.33;;;7.90;;
4074;SDS011;2052;53.522;9.806;2023-03-01T00:07:00;16.27;;;8.60;;
4074;SDS011;2052;53.522;9.806;2023-03-01T00:09:27;15.87;;;8.43;;
4074;SDS011;2052;53.522;9.806;2023-03-01T00:11:55;13.97;;;8.23;;
4074;SDS011;2052;53.522;9.806;2023-03-01T00:14:21;16.27;;;8.53;;
4074;SDS011;2052;53.522;9.806;2023-03-01T00:16:48;16.87;;;8.93;;
4074;SDS011;2052;53.522;9.806;2023-03-01T00:19:15;12.17;;;7.90;;
4074;SDS011;2052;53.522;9.806;2023-03-01T00:21:43;15.87;;;8.67;;
4074;SDS011;2052;53.522;9.806;2023-03-01T00:24:10;17.93;;;8.63;;
4074;SDS011;2052;53.522;9.806;2023-03-01T00:26:36;16.43;;;9.50;;
4074;SDS011;2052;53.522;9.806;2023-03-01T00:29:04;15.00;;;8.60;;
4074;SDS011;2052;53.522;9.806;2023-03-01T00:31:32;15.77;;;9.00;;
4074;SDS011;2052;53.522;9.806;2023-03-01T00:34:00;12.57;;;8.33;;
4074;SDS011;2052;53.522;9.806;2023-03-01T00:36:31;14.07;;;8.90;;
4074;SDS011;2052;53.522;9.806;2023-03-01T00:38:58;15.37;;;8.00;;
4074;SDS011;2052;53.522;9.806;2023-03-01T00:41:24;11.73;;;8.07;;
4074;SDS011;2052;53.522;9.806;2023-03-01T00:43:52;12.37;;;7.63;;
4074;SDS011;2052;53.522;9.806;2023-03-01T00:46:21;11.10;;;8.63;;
4074;SDS011;2052;53.522;9.806;2023-03-01T00:48:49;10.37;;;7.53;;
4074;SDS011;2052;53.522;9.806;2023-03-01T00:51:16;12.63;;;8.30;;
4074;SDS011;2052;53.522;9.806;2023-03-01T00:53:44;14.90;;;8.40;;
4074;SDS011;2052;53.522;9.806;2023-03-01T00:56:12;13.47;;;8.33;;
4074;SDS011;2052;53.522;9.806;2023-03-01T00:58:40;14.73;;;7.40;;
4074;SDS011;2052;53.522;9.806;2023-03-01T01:01:07;11.17;;;7.63;;
4074;SDS011;2052;53.522;9.806;2023-03-01T01:03:43;12.33;;;7.83;;
4074;SDS011;2052;53.522;9.806;2023-03-01T01:06:14;11.77;;;7.30;;
4074;SDS011;2052;53.522;9.806;2023-03-01T01:08:42;13.60;;;8.43;;
4074;SDS011;2052;53.522;9.806;2023-03-01T01:11:09;9.57;;;7.47;;
4074;SDS011;2052;53.522;9.806;2023-03-01T01:13:36;8.70;;;6.90;;
4074;SDS011;2052;53.522;9.806;2023-03-01T01:16:03;10.70;;;7.37;;
4074;SDS011;2052;53.522;9.806;2023-03-01T01:18:30;10.60;;;7.70;;
4074;SDS011;2052;53.522;9.806;2023-03-01T01:21:02;12.63;;;7.47;;
4074;SDS011;2052;53.522;9.806;2023-03-01T01:23:29;11.23;;;7.20;;
4074;SDS011;2052;53.522;9.806;2023-03-01T01:25:56;9.93;;;7.10;;
4074;SDS011;2052;53.522;9.806;2023-03-01T01:28:22;11.77;;;7.87;;
4074;SDS011;2052;53.522;9.806;2023-03-01T01:30:49;11.70;;;7.60;;
4074;SDS011;2052;53.522;9.806;2023-03-01T01:33:17;10.07;;;6.90;;
4074;SDS011;2052;53.522;9.806;2023-03-01T01:35:44;12.10;;;7.50;;
4074;SDS011;2052;53.522;9.806;2023-03-01T01:38:12;12.23;;;6.60;;
4074;SDS011;2052;53.522;9.806;2023-03-01T01:40:42;15.23;;;7.67;;
4074;SDS011;2052;53.522;9.806;2023-03-01T01:43:12;11.70;;;7.63;;
4074;SDS011;2052;53.522;9.806;2023-03-01T01:45:44;8.80;;;6.90;;
4074;SDS011;2052;53.522;9.806;2023-03-01T01:48:12;11.67;;;7.30;;
4074;SDS011;2052;53.522;9.806;2023-03-01T01:50:40;13.20;;;7.70;;
4074;SDS011;2052;53.522;9.806;2023-03-01T01:53:11;11.90;;;7.77;;
4074;SDS011;2052;53.522;9.806;2023-03-01T01:55:42;23.53;;;8.20;;
4074;SDS011;2052;53.522;9.806;2023-03-01T01:58:10;12.80;;;8.03;;
4074;SDS011;2052;53.522;9.806;2023-03-01T02:00:38;11.83;;;7.37;;
4074;SDS011;2052;53.522;9.806;2023-03-01T02:03:06;12.30;;;7.83;;
4074;SDS011;2052;53.522;9.806;2023-03-01T02:05:36;10.33;;;7.20;;
4074;SDS011;2052;53.522;9.806;2023-03-01T02:08:05;9.17;;;6.60;;
4074;SDS011;2052;53.522;9.806;2023-03-01T02:10:34;10.30;;;7.00;;
4074;SDS011;2052;53.522;9.806;2023-03-01T02:13:01;14.73;;;7.80;;
4074;SDS011;2052;53.522;9.806;2023-03-01T02:15:28;12.17;;;7.67;;
4074;SDS011;2052;53.522;9.806;2023-03-01T02:17:58;13.87;;;7.50;;
4074;SDS011;2052;53.522;9.806;2023-03-01T02:20:26;10.20;;;7.00;;
4074;SDS011;2052;53.522;9.806;2023-03-01T02:22:55;12.97;;;9.33;;
4074;SDS011;2052;53.522;9.806;2023-03-01T02:25:26;10.37;;;6.43;;
4074;SDS011;2052;53.522;9.806;2023-03-01T02:27:57;10.83;;;7.20;;
4074;SDS011;2052;53.522;9.806;2023-03-01T02:30:27;10.10;;;6.60;;
4074;SDS011;2052;53.522;9.806;2023-03-01T02:32:55;14.53;;;7.63;;
4074;SDS011;2052;53.522;9.806;2023-03-01T02:35:27;9.00;;;6.27;;
4074;SDS011;2052;53.522;9.806;2023-03-01T02:37:56;12.70;;;7.27;;
4074;SDS011;2052;53.522;9.806;2023-03-01T02:40:25;9.80;;;7.80;;
4074;SDS011;2052;53.522;9.806;2023-03-01T02:42:54;10.13;;;6.77;;
4074;SDS011;2052;53.522;9.806;2023-03-01T02:45:22;14.47;;;6.70;;
4074;SDS011;2052;53.522;9.806;2023-03-01T02:47:52;11.07;;;7.33;;
4074;SDS011;2052;53.522;9.806;2023-03-01T02:50:23;13.80;;;6.70;;
4074;SDS011;2052;53.522;9.806;2023-03-01T02:53:01;10.03;;;6.43;;
4074;SDS011;2052;53.522;9.806;2023-03-01T02:55:28;11.40;;;6.90;;
4074;SDS011;2052;53.522;9.806;2023-03-01T02:57:56;16.23;;;6.60;;
4074;SDS011;2052;53.522;9.806;2023-03-01T03:00:23;8.53;;;6.00;;
4074;SDS011;2052;53.522;9.806;2023-03-01T03:02:54;9.10;;;5.90;;
4074;SDS011;2052;53.522;9.806;2023-03-01T03:05:23;11.33;;;6.40;;
4074;SDS011;2052;53.522;9.806;2023-03-01T03:07:51;8.77;;;5.90;;
4074;SDS011;2052;53.522;9.806;2023-03-01T03:10:19;7.87;;;5.67;;
4074;SDS011;2052;53.522;9.806;2023-03-01T03:12:51;10.30;;;6.07;;
4074;SDS011;2052;53.522;9.806;2023-03-01T03:15:19;9.57;;;5.63;;
4074;SDS011;2052;53.522;9.806;2023-03-01T03:17:46;7.43;;;5.40;;
4074;SDS011;2052;53.522;9.806;2023-03-01T03:20:15;8.70;;;6.00;;
4074;SDS011;2052;53.522;9.806;2023-03-01T03:22:44;9.57;;;6.50;;
4074;SDS011;2052;53.522;9.806;2023-03-01T03:25:11;11.37;;;5.90;;
4074;SDS011;2052;53.522;9.806;2023-03-01T03:27:37;8.10;;;5.70;;
4074;SDS011;2052;53.522;9.806;2023-03-01T03:30:05;7.83;;;5.27;;
4074;SDS011;2052;53.522;9.806;2023-03-01T03:32:34;6.30;;;5.53;;
4074;SDS011;2052;53.522;9.806;2023-03-01T03:35:00;6.90;;;5.20;;
4074;SDS011;2052;53.522;9.806;2023-03-01T03:37:35;7.43;;;4.90;;
4074;SDS011;2052;53.522;9.806;2023-03-01T03:40:19;8.70;;;5.00;;
4074;SDS011;2052;53.522;9.806;2023-03-01T03:42:46;7.20;;;4.70;;
4074;SDS011;2052;53.522;9.806;2023-03-01T03:45:13;6.60;;;4.80;;
4074;SDS011;2052;53.522;9.806;2023-03-01T03:47:40;6.90;;;5.10;;
4074;SDS011;2052;53.522;9.806;2023-03-01T03:50:06;9.53;;;5.27;;
4074;SDS011;2052;53.522;9.806;2023-03-01T03:52:35;8.50;;;4.60;;
4074;SDS011;2052;53.522;9.806;2023-03-01T03:55:02;7.20;;;4.63;;
4074;SDS011;2052;53.522;9.806;2023-03-01T03:57:29;9.57;;;5.03;;
4074;SDS011;2052;53.522;9.806;2023-03-01T03:59:55;8.17;;;5.40;;
4074;SDS011;2052;53.522;9.806;2023-03-01T04:02:22;8.27;;;4.80;;
4074;SDS011;2052;53.522;9.806;2023-03-01T04:04:49;6.43;;;4.13;;
4074;SDS011;2052;53.522;9.806;2023-03-01T04:07:15;7.60;;;4.67;;
4074;SDS011;2052;53.522;9.806;2023-03-01T04:09:43;8.20;;;4.90;;
4074;SDS011;2052;53.522;9.806;2023-03-01T04:12:10;13.43;;;5.50;;
4074;SDS011;2052;53.522;9.806;2023-03-01T04:14:37;5.27;;;4.27;;
4074;SDS011;2052;53.522;9.806;2023-03-01T04:17:03;6.33;;;4.93;;
4074;SDS011;2052;53.522;9.806;2023-03-01T04:19:30;10.03;;;4.97;;
4074;SDS011;2052;53.522;9.806;2023-03-01T04:22:00;5.93;;;4.40;;
4074;SDS011;2052;53.522;9.806;2023-03-01T04:24:32;8.07;;;5.20;;
4074;SDS011;2052;53.522;9.806;2023-03-01T04:27:00;10.73;;;4.73;;
4074;SDS011;2052;53.522;9.806;2023-03-01T04:29:27;9.00;;;4.60;;
4074;SDS011;2052;53.522;9.806;2023-03-01T04:31:54;12.37;;;6.20;;
4074;SDS011;2052;53.522;9.806;2023-03-01T04:34:21;11.30;;;5.07;;
4074;SDS011;2052;53.522;9.806;2023-03-01T04:36:47;8.30;;;5.60;;
4074;SDS011;2052;53.522;9.806;2023-03-01T04:39:14;7.30;;;4.73;;
4074;SDS011;2052;53.522;9.806;2023-03-01T04:41:40;7.27;;;5.20;;
4074;SDS011;2052;53.522;9.806;2023-03-01T04:44:09;7.97;;;4.90;;
4074;SDS011;2052;53.522;9.806;2023-03-01T04:46:37;10.00;;;5.70;;
4074;SDS011;2052;53.522;9.806;2023-03-01T04:49:04;4.67;;;4.13;;
4074;SDS011;2052;53.522;9.806;2023-03-01T04:51:30;8.07;;;5.00;;
4074;SDS011;2052;53.522;9.806;2023-03-01T04:53:58;7.00;;;4.63;;
4074;SDS011;2052;53.522;9.806;2023-03-01T04:56:25;6.23;;;4.60;;
4074;SDS011;2052;53.522;9.806;2023-03-01T04:58:52;9.40;;;6.10;;
4074;SDS011;2052;53.522;9.806;2023-03-01T05:01:21;7.77;;;4.97;;
4074;SDS011;2052;53.522;9.806;2023-03-01T05:03:49;7.07;;;5.60;;
4074;SDS011;2052;53.522;9.806;2023-03-01T05:06:16;9.60;;;5.50;;
4074;SDS011;2052;53.522;9.806;2023-03-01T05:08:43;8.80;;;6.10;;
4074;SDS011;2052;53.522;9.806;2023-03-01T05:11:10;11.30;;;7.10;;
4074;SDS011;2052;53.522;9.806;2023-03-01T05:13:38;7.27;;;5.20;;
4074;SDS011;2052;53.522;9.806;2023-03-01T05:16:06;6.83;;;5.33;;
4074;SDS011;2052;53.522;9.806;2023-03-01T05:18:38;7.80;;;6.40;;
4074;SDS011;2052;53.522;9.806;2023-03-01T05:21:06;8.00;;;6.80;;
4074;SDS011;2052;53.522;9.806;2023-03-01T05:23:33;9.33;;;6.27;;
4074;SDS011;2052;53.522;9.806;2023-03-01T05:26:02;10.30;;;6.27;;
4074;SDS011;2052;53.522;9.806;2023-03-01T05:28:30;6.90;;;5.10;;
4074;SDS011;2052;53.522;9.806;2023-03-01T05:30:57;11.73;;;7.10;;
4074;SDS011;2052;53.522;9.806;2023-03-01T05:33:25;12.83;;;6.73;;
4074;SDS011;2052;53.522;9.806;2023-03-01T05:35:54;9.40;;;5.97;;
4074;SDS011;2052;53.522;9.806;2023-03-01T05:38:20;14.07;;;7.00;;
4074;SDS011;2052;53.522;9.806;2023-03-01T05:40:47;15.87;;;7.70;;
4074;SDS011;2052;53.522;9.806;2023-03-01T05:43:15;11.53;;;7.67;;
4074;SDS011;2052;53.522;9.806;2023-03-01T05:45:43;13.00;;;7.00;;
4074;SDS011;2052;53.522;9.806;2023-03-01T05:48:10;10.23;;;7.47;;
4074;SDS011;2052;53.522;9.806;2023-03-01T05:50:38;13.83;;;9.37;;
4074;SDS011;2052;53.522;9.806;2023-03-01T05:53:07;12.17;;;7.97;;
4074;SDS011;2052;53.522;9.806;2023-03-01T05:55:36;9.70;;;6.60;;
4074;SDS011;2052;53.522;9.806;2023-03-01T05:58:04;11.40;;;7.40;;
4074;SDS011;2052;53.522;9.806;2023-03-01T06:00:34;15.23;;;8.80;;
4074;SDS011;2052;53.522;9.806;2023-03-01T06:03:01;19.80;;;10.93;;
4074;SDS011;2052;53.522;9.806;2023-03-01T06:05:28;16.43;;;9.47;;
4074;SDS011;2052;53.522;9.806;2023-03-01T06:07:57;13.77;;;8.77;;
4074;SDS011;2052;53.522;9.806;2023-03-01T06:10:26;21.40;;;12.50;;
4074;SDS011;2052;53.522;9.806;2023-03-01T06:12:52;14.10;;;9.80;;
4074;SDS011;2052;53.522;9.806;2023-03-01T06:15:19;14.00;;;10.50;;
4074;SDS011;2052;53.522;9.806;2023-03-01T06:17:46;15.17;;;9.87;;
4074;SDS011;2052;53.522;9.806;2023-03-01T06:20:15;15.33;;;10.17;;
4074;SDS011;2052;53.522;9.806;2023-03-01T06:22:44;14.50;;;9.63;;
4074;SDS011;2052;53.522;9.806;2023-03-01T06:25:11;22.70;;;11.17;;
4074;SDS011;2052;53.522;9.806;2023-03-01T06:27:40;8.70;;;6.00;;
4074;SDS011;2052;53.522;9.806;2023-03-01T06:30:08;35.80;;;19.47;;
4074;SDS011;2052;53.522;9.806;2023-03-01T06:32:35;24.23;;;13.90;;
4074;SDS011;2052;53.522;9.806;2023-03-01T06:35:03;17.20;;;9.57;;
4074;SDS011;2052;53.522;9.806;2023-03-01T06:37:30;17.13;;;8.80;;
4074;SDS011;2052;53.522;9.806;2023-03-01T06:39:57;8.60;;;6.63;;
4074;SDS011;2052;53.522;9.806;2023-03-01T06:42:24;24.67;;;12.87;;
4074;SDS011;2052;53.522;9.806;2023-03-01T06:44:52;11.30;;;8.50;;
4074;SDS011;2052;53.522;9.806;2023-03-01T06:47:19;10.20;;;6.63;;
4074;SDS011;2052;53.522;9.806;2023-03-01T06:49:45;11.80;;;6.20;;
4074;SDS011;2052;53.522;9.806;2023-03-01T06:52:12;18.00;;;6.43;;
4074;SDS011;2052;53.522;9.806;2023-03-01T06:54:38;9.37;;;5.80;;
4074;SDS011;2052;53.522;9.806;2023-03-01T06:57:05;7.80;;;6.07;;
4074;SDS011;2052;53.522;9.806;2023-03-01T06:59:32;12.03;;;6.00;;
4074;SDS011;2052;53.522;9.806;2023-03-01T07:02:00;10.20;;;6.90;;
4074;SDS011;2052;53.522;9.806;2023-03-01T07:04:27;9.97;;;7.17;;
4074;SDS011;2052;53.522;9.806;2023-03-01T07:06:55;27.47;;;15.07;;
4074;SDS011;2052;53.522;9.806;2023-03-01T07:09:22;13.70;;;9.50;;
4074;SDS011;2052;53.522;9.806;2023-03-01T07:11:49;9.77;;;6.87;;
4074;SDS011;2052;53.522;9.806;2023-03-01T07:14:16;15.27;;;7.60;;
4074;SDS011;2052;53.522;9.806;2023-03-01T07:16:42;13.33;;;7.73;;
4074;SDS011;2052;53.522;9.806;2023-03-01T07:19:10;11.97;;;7.23;;
4074;SDS011;2052;53.522;9.806;2023-03-01T07:21:37;17.73;;;8.23;;
4074;SDS011;2052;53.522;9.806;2023-03-01T07:24:05;14.03;;;8.07;;
4074;SDS011;2052;53.522;9.806;2023-03-01T07:26:32;13.00;;;7.80;;
4074;SDS011;2052;53.522;9.806;2023-03-01T07:28:59;14.20;;;7.53;;
4074;SDS011;2052;53.522;9.806;2023-03-01T07:31:26;9.60;;;6.47;;
4074;SDS011;2052;53.522;9.806;2023-03-01T07:33:53;12.80;;;7.07;;
4074;SDS011;2052;53.522;9.806;2023-03-01T07:36:21;11.30;;;7.23;;
4074;SDS011;2052;53.522;9.806;2023-03-01T07:38:48;9.23;;;7.10;;
4074;SDS011;2052;53.522;9.806;2023-03-01T07:41:15;10.27;;;7.23;;
4074;SDS011;2052;53.522;9.806;2023-03-01T07:43:42;16.83;;;10.17;;
4074;SDS011;2052;53.522;9.806;2023-03-01T07:46:08;13.17;;;7.90;;
4074;SDS011;2052;53.522;9.806;2023-03-01T07:48:35;11.47;;;6.37;;
4074;SDS011;2052;53.522;9.806;2023-03-01T07:51:02;8.03;;;6.20;;
4074;SDS011;2052;53.522;9.806;2023-03-01T07:53:31;13.03;;;8.10;;
4074;SDS011;2052;53.522;9.806;2023-03-01T07:56:02;10.23;;;7.20;;
4074;SDS011;2052;53.522;9.806;2023-03-01T07:58:30;8.57;;;7.07;;
4074;SDS011;2052;53.522;9.806;2023-03-01T08:01:00;10.20;;;7.10;;
4074;SDS011;2052;53.522;9.806;2023-03-01T08:03:27;9.90;;;7.07;;
4074;SDS011;2052;53.522;9.806;2023-03-01T08:05:54;13.70;;;8.20;;
4074;SDS011;2052;53.522;9.806;2023-03-01T08:08:21;11.83;;;7.60;;
4074;SDS011;2052;53.522;9.806;2023-03-01T08:10:49;12.40;;;8.53;;
4074;SDS011;2052;53.522;9.806;2023-03-01T08:13:15;11.87;;;8.27;;
4074;SDS011;2052;53.522;9.806;2023-03-01T08:15:47;14.53;;;8.77;;
4074;SDS011;2052;53.522;9.806;2023-03-01T08:18:13;13.73;;;8.97;;
4074;SDS011;2052;53.522;9.806;2023-03-01T08:20:40;13.00;;;8.80;;
4074;SDS011;2052;53.522;9.806;2023-03-01T08:23:07;12.77;;;9.33;;
4074;SDS011;2052;53.522;9.806;2023-03-01T08:25:33;10.00;;;8.47;;
4074;SDS011;2052;53.522;9.806;2023-03-01T08:28:02;12.90;;;9.57;;
4074;SDS011;2052;53.522;9.806;2023-03-01T08:30:29;13.33;;;8.23;;
4074;SDS011;2052;53.522;9.806;2023-03-01T08:32:55;17.63;;;8.40;;
4074;SDS011;2052;53.522;9.806;2023-03-01T08:35:22;9.37;;;8.43;;
4074;SDS011;2052;53.522;9.806;2023-03-01T08:37:49;12.70;;;8.93;;
4074;SDS011;2052;53.522;9.806;2023-03-01T08:40:15;11.67;;;8.73;;
4074;SDS011;2052;53.522;9.806;2023-03-01T08:42:42;12.23;;;8.80;;
4074;SDS011;2052;53.522;9.806;2023-03-01T08:45:11;11.00;;;8.70;;
4074;SDS011;2052;53.522;9.806;2023-03-01T08:47:39;12.37;;;8.93;;
4074;SDS011;2052;53.522;9.806;2023-03-01T08:50:08;10.93;;;8.27;;
4074;SDS011;2052;53.522;9.806;2023-03-01T08:52:35;16.87;;;8.73;;
4074;SDS011;2052;53.522;9.806;2023-03-01T08:55:02;10.87;;;9.00;;
4074;SDS011;2052;53.522;9.806;2023-03-01T08:57:29;10.83;;;8.37;;
4074;SDS011;2052;53.522;9.806;2023-03-01T08:59:56;14.40;;;9.13;;
4074;SDS011;2052;53.522;9.806;2023-03-01T09:02:24;16.00;;;10.90;;
4074;SDS011;2052;53.522;9.806;2023-03-01T09:04:50;19.37;;;10.20;;
4074;SDS011;2052;53.522;9.806;2023-03-01T09:07:17;21.83;;;10.33;;
4074;SDS011;2052;53.522;9.806;2023-03-01T09:09:43;15.70;;;11.03;;
4074;SDS011;2052;53.522;9.806;2023-03-01T09:12:10;14.10;;;11.20;;
4074;SDS011;2052;53.522;9.806;2023-03-01T09:14:36;17.17;;;10.57;;
4074;SDS011;2052;53.522;9.806;2023-03-01T09:17:03;21.30;;;12.47;;
4074;SDS011;2052;53.522;9.806;2023-03-01T09:19:32;15.33;;;11.23;;
4074;SDS011;2052;53.522;9.806;2023-03-01T09:21:58;20.47;;;12.13;;
4074;SDS011;2052;53.522;9.806;2023-03-01T09:24:25;20.70;;;13.23;;
4074;SDS011;2052;53.522;9.806;2023-03-01T09:26:53;18.67;;;12.87;;
4074;SDS011;2052;53.522;9.806;2023-03-01T09:29:20;19.37;;;13.00;;
4074;SDS011;2052;53.522;9.806;2023-03-01T09:31:47;20.27;;;13.67;;
4074;SDS011;2052;53.522;9.806;2023-03-01T09:34:13;22.90;;;13.30;;
4074;SDS011;2052;53.522;9.806;2023-03-01T09:36:42;21.20;;;13.27;;
4074;SDS011;2052;53.522;9.806;2023-03-01T09:39:09;20.43;;;14.13;;
4074;SDS011;2052;53.522;9.806;2023-03-01T09:41:43;25.20;;;13.33;;
4074;SDS011;2052;53.522;9.806;2023-03-01T09:44:13;23.23;;;13.50;;
4074;SDS011;2052;53.522;9.806;2023-03-01T09:46:46;21.80;;;13.73;;
4074;SDS011;2052;53.522;9.806;2023-03-01T09:49:14;19.90;;;13.13;;
4074;SDS011;2052;53.522;9.806;2023-03-01T09:51:46;22.70;;;13.13;;
4074;SDS011;2052;53.522;9.806;2023-03-01T09:54:20;25.53;;;12.90;;
4074;SDS011;2052;53.522;9.806;2023-03-01T09:56:50;21.23;;;13.37;;
4074;SDS011;2052;53.522;9.806;2023-03-01T09:59:23;26.83;;;12.60;;
4074;SDS011;2052;53.522;9.806;2023-03-01T10:01:55;20.23;;;11.17;;
4074;SDS011;2052;53.522;9.806;2023-03-01T10:04:32;18.07;;;12.00;;
4074;SDS011;2052;53.522;9.806;2023-03-01T10:07:10;23.10;;;12.00;;
4074;SDS011;2052;53.522;9.806;2023-03-01T10:09:44;19.47;;;11.90;;
4074;SDS011;2052;53.522;9.806;2023-03-01T10:12:12;17.90;;;12.13;;
4074;SDS011;2052;53.522;9.806;2023-03-01T10:14:42;18.27;;;11.10;;
4074;SDS011;2052;53.522;9.806;2023-03-01T10:17:16;19.00;;;12.30;;
4074;SDS011;2052;53.522;9.806;2023-03-01T10:19:48;20.40;;;11.47;;
4074;SDS011;2052;53.522;9.806;2023-03-01T10:22:18;19.00;;;10.77;;
4074;SDS011;2052;53.522;9.806;2023-03-01T10:24:46;19.10;;;11.20;;
4074;SDS011;2052;53.522;9.806;2023-03-01T10:27:14;18.80;;;11.03;;
4074;SDS011;2052;53.522;9.806;2023-03-01T10:29:46;17.23;;;10.50;;
4074;SDS011;2052;53.522;9.806;2023-03-01T10:32:15;21.30;;;11.50;;
4074;SDS011;2052;53.522;9.806;2023-03-01T10:34:42;15.07;;;10.10;;
4074;SDS011;2052;53.522;9.806;2023-03-01T10:37:10;16.60;;;10.40;;
4074;SDS011;2052;53.522;9.806;2023-03-01T10:39:53;16.73;;;10.60;;
4074;SDS011;2052;53.522;9.806;2023-03-01T10:42:22;17.13;;;10.03;;
4074;SDS011;2052;53.522;9.806;2023-03-01T10:44:52;18.10;;;10.90;;
4074;SDS011;2052;53.522;9.806;2023-03-01T10:47:20;15.93;;;9.83;;
4074;SDS011;2052;53.522;9.806;2023-03-01T10:49:54;29.10;;;10.90;;
4074;SDS011;2052;53.522;9.806;2023-03-01T10:52:24;13.97;;;8.97;;
4074;SDS011;2052;53.522;9.806;2023-03-01T10:54:54;13.17;;;9.10;;
4074;SDS011;2052;53.522;9.806;2023-03-01T10:57:29;17.77;;;9.03;;
4074;SDS011;2052;53.522;9.806;2023-03-01T11:00:01;13.87;;;9.00;;
4074;SDS011;2052;53.522;9.806;2023-03-01T11:02:41;16.00;;;9.10;;
4074;SDS011;2052;53.522;9.806;2023-03-01T11:05:13;17.50;;;8.77;;
4074;SDS011;2052;53.522;9.806;2023-03-01T11:07:47;14.63;;;9.23;;
4074;SDS011;2052;53.522;9.806;2023-03-01T11:10:18;13.47;;;9.40;;
4074;SDS011;2052;53.522;9.806;2023-03-01T11:12:45;15.33;;;8.97;;
4074;SDS011;2052;53.522;9.806;2023-03-01T11:15:19;16.50;;;10.47;;
4074;SDS011;2052;53.522;9.806;2023-03-01T11:17:47;16.83;;;8.33;;
4074;SDS011;2052;53.522;9.806;2023-03-01T11:20:17;11.93;;;8.23;;
4074;SDS011;2052;53.522;9.806;2023-03-01T11:22:50;14.73;;;8.30;;
4074;SDS011;2052;53.522;9.806;2023-03-01T11:25:20;15.57;;;8.50;;
4074;SDS011;2052;53.522;9.806;2023-03-01T11:27:50;15.27;;;9.00;;
4074;SDS011;2052;53.522;9.806;2023-03-01T11:30:19;16.23;;;8.70;;
4074;SDS011;2052;53.522;9.806;2023-03-01T11:32:50;12.60;;;8.10;;
4074;SDS011;2052;53.522;9.806;2023-03-01T11:35:22;14.57;;;8.47;;
4074;SDS011;2052;53.522;9.806;2023-03-01T11:37:56;15.97;;;8.80;;
4074;SDS011;2052;53.522;9.806;2023-03-01T11:40:32;12.50;;;8.87;;
4074;SDS011;2052;53.522;9.806;2023-03-01T11:43:02;15.60;;;8.07;;
4074;SDS011;2052;53.522;9.806;2023-03-01T11:45:39;17.60;;;9.17;;
4074;SDS011;2052;53.522;9.806;2023-03-01T11:48:20;16.33;;;8.90;;
4074;SDS011;2052;53.522;9.806;2023-03-01T11:50:56;16.93;;;8.20;;
4074;SDS011;2052;53.522;9.806;2023-03-01T11:56:16;16.83;;;8.70;;
4074;SDS011;2052;53.522;9.806;2023-03-01T12:01:49;16.03;;;8.90;;
4074;SDS011;2052;53.522;9.806;2023-03-01T12:04:38;13.70;;;8.23;;
4074;SDS011;2052;53.522;9.806;2023-03-01T12:07:18;22.20;;;8.80;;
4074;SDS011;2052;53.522;9.806;2023-03-01T12:09:51;18.10;;;7.90;;
4074;SDS011;2052;53.522;9.806;2023-03-01T12:12:36;15.33;;;8.57;;
4074;SDS011;2052;53.522;9.806;2023-03-01T12:15:28;13.40;;;8.33;;
4074;SDS011;2052;53.522;9.806;2023-03-01T12:18:11;15.00;;;8.43;;
4074;SDS011;2052;53.522;9.806;2023-03-01T12:20:44;15.20;;;8.60;;
4074;SDS011;2052;53.522;9.806;2023-03-01T12:23:30;17.80;;;9.07;;
4074;SDS011;2052;53.522;9.806;2023-03-01T12:26:05;16.47;;;9.40;;
4074;SDS011;2052;53.522;9.806;2023-03-01T12:28:40;15.07;;;7.50;;
4074;SDS011;2052;53.522;9.806;2023-03-01T12:31:25;18.47;;;10.50;;
4074;SDS011;2052;53.522;9.806;2023-03-01T12:34:03;16.50;;;8.67;;
4074;SDS011;2052;53.522;9.806;2023-03-01T12:36:44;15.70;;;10.30;;
4074;SDS011;2052;53.522;9.806;2023-03-01T12:39:29;16.93;;;9.77;;
4074;SDS011;2052;53.522;9.806;2023-03-01T12:42:04;17.20;;;9.80;;
4074;SDS011;2052;53.522;9.806;2023-03-01T12:44:39;24.10;;;12.87;;
4074;SDS011;2052;53.522;9.806;2023-03-01T12:47:16;18.20;;;10.57;;
4074;SDS011;2052;53.522;9.806;2023-03-01T12:49:48;24.00;;;11.30;;
4074;SDS011;2052;53.522;9.806;2023-03-01T12:52:19;20.37;;;10.57;;
4074;SDS011;2052;53.522;9.806;2023-03-01T12:54:49;18.07;;;10.70;;
4074;SDS011;2052;53.522;9.806;2023-03-01T12:57:18;25.33;;;11.40;;
4074;SDS011;2052;53.522;9.806;2023-03-01T12:59:51;16.60;;;10.00;;
4074;SDS011;2052;53.522;9.806;2023-03-01T13:02:29;27.33;;;11.40;;
4074;SDS011;2052;53.522;9.806;2023-03-01T13:07:52;25.80;;;11.57;;
4074;SDS011;2052;53.522;9.806;2023-03-01T13:10:24;21.50;;;11.87;;
4074;SDS011;2052;53.522;9.806;2023-03-01T13:13:11;22.47;;;11.70;;
4074;SDS011;2052;53.522;9.806;2023-03-01T13:15:41;22.20;;;10.37;;
4074;SDS011;2052;53.522;9.806;2023-03-01T13:20:59;20.53;;;10.20;;
4074;SDS011;2052;53.522;9.806;2023-03-01T13:23:36;24.87;;;12.53;;
4074;SDS011;2052;53.522;9.806;2023-03-01T13:26:05;22.80;;;11.53;;
4074;SDS011;2052;53.522;9.806;2023-03-01T13:34:43;30.47;;;14.10;;
4074;SDS011;2052;53.522;9.806;2023-03-01T13:37:23;23.10;;;12.80;;
4074;SDS011;2052;53.522;9.806;2023-03-01T13:39:54;29.90;;;13.63;;
4074;SDS011;2052;53.522;9.806;2023-03-01T13:42:33;22.80;;;11.10;;
4074;SDS011;2052;53.522;9.806;2023-03-01T13:45:16;19.10;;;12.27;;
4074;SDS011;2052;53.522;9.806;2023-03-01T13:47:48;24.63;;;11.97;;
4074;SDS011;2052;53.522;9.806;2023-03-01T13:50:20;26.53;;;13.30;;
4074;SDS011;2052;53.522;9.806;2023-03-01T13:52:50;21.47;;;11.07;;
4074;SDS011;2052;53.522;9.806;2023-03-01T13:55:21;22.10;;;11.10;;
4074;SDS011;2052;53.522;9.806;2023-03-01T13:57:54;20.90;;;12.50;;
4074;SDS011;2052;53.522;9.806;2023-03-01T14:00:26;21.63;;;10.93;;
4074;SDS011;2052;53.522;9.806;2023-03-01T14:03:04;22.33;;;10.30;;
4074;SDS011;2052;53.522;9.806;2023-03-01T14:05:34;23.73;;;11.87;;
4074;SDS011;2052;53.522;9.806;2023-03-01T14:08:03;29.23;;;14.83;;
4074;SDS011;2052;53.522;9.806;2023-03-01T14:10:35;39.00;;;17.53;;
4074;SDS011;2052;53.522;9.806;2023-03-01T14:13:19;45.83;;;15.77;;
4074;SDS011;2052;53.522;9.806;2023-03-01T14:15:56;34.97;;;15.47;;
4074;SDS011;2052;53.522;9.806;2023-03-01T14:18:33;33.27;;;14.53;;
4074;SDS011;2052;53.522;9.806;2023-03-01T14:21:18;26.40;;;12.03;;
4074;SDS011;2052;53.522;9.806;2023-03-01T14:23:45;21.27;;;10.87;;
4074;SDS011;2052;53.522;9.806;2023-03-01T14:26:12;23.57;;;11.67;;
4074;SDS011;2052;53.522;9.806;2023-03-01T14:28:39;20.70;;;9.90;;
4074;SDS011;2052;53.522;9.806;2023-03-01T14:34:16;25.23;;;9.90;;
4074;SDS011;2052;53.522;9.806;2023-03-01T14:36:45;19.17;;;9.83;;
4074;SDS011;2052;53.522;9.806;2023-03-01T14:39:15;15.50;;;8.30;;
4074;SDS011;2052;53.522;9.806;2023-03-01T14:41:43;17.73;;;9.00;;
4074;SDS011;2052;53.522;9.806;2023-03-01T14:44:18;20.50;;;9.97;;
4074;SDS011;2052;53.522;9.806;2023-03-01T14:47:01;19.53;;;10.30;;
4074;SDS011;2052;53.522;9.806;2023-03-01T14:49:30;25.17;;;11.63;;
4074;SDS011;2052;53.522;9.806;2023-03-01T14:51:57;25.13;;;11.40;;
4074;SDS011;2052;53.522;9.806;2023-03-01T14:54:27;23.77;;;11.30;;
4074;SDS011;2052;53.522;9.806;2023-03-01T14:56:58;23.70;;;11.27;;
4074;SDS011;2052;53.522;9.806;2023-03-01T14:59:32;14.57;;;8.30;;
4074;SDS011;2052;53.522;9.806;2023-03-01T15:01:59;17.97;;;10.20;;
4074;SDS011;2052;53.522;9.806;2023-03-01T15:04:33;23.80;;;10.97;;
4074;SDS011;2052;53.522;9.806;2023-03-01T15:07:01;23.57;;;10.57;;
4074;SDS011;2052;53.522;9.806;2023-03-01T15:09:29;20.90;;;10.00;;
4074;SDS011;2052;53.522;9.806;2023-03-01T15:11:58;21.37;;;11.10;;
4074;SDS011;2052;53.522;9.806;2023-03-01T15:14:28;26.17;;;11.60;;
4074;SDS011;2052;53.522;9.806;2023-03-01T15:17:12;23.03;;;12.00;;
4074;SDS011;2052;53.522;9.806;2023-03-01T15:19:49;23.67;;;11.00;;
4074;SDS011;2052;53.522;9.806;2023-03-01T15:22:16;21.63;;;12.17;;
4074;SDS011;2052;53.522;9.806;2023-03-01T15:24:46;24.77;;;12.03;;
4074;SDS011;2052;53.522;9.806;2023-03-01T15:27:14;32.57;;;13.07;;
4074;SDS011;2052;53.522;9.806;2023-03-01T15:29:46;26.27;;;13.10;;
4074;SDS011;2052;53.522;9.806;2023-03-01T15:32:25;25.10;;;12.40;;
4074;SDS011;2052;53.522;9.806;2023-03-01T15:34:54;23.67;;;12.57;;
4074;SDS011;2052;53.522;9.806;2023-03-01T15:37:40;22.43;;;12.53;;